Current Weather

Al Ahsa

Al Ahsa, Saudi Arabia (OEAH)

Report from: Tuesday, June 18, 2024 4:00 PM +03
Current time: Tuesday, June 18, 2024 4:36 PM +03

Nearby weather – Weather history – Daily summaries
Weather forecast

Temperature47.0°C (116.6°F)
Heat index42.8°C (109.1°F)
Dew point3.0°C (37.4°F)
Winds 4 kts (2.1 m/s, 4.6 mph) East-Northeast (70°)
Clouds Sky clear
Altimeter29.56 in.Hg (1001 mB)
Relative humidity7 %
Density altitude4,070 ft. (1,241 m)
Remarks Ceiling and visibility OK
No significant changes expected in the next two hours
Flight conditions Visual Meteorological Conditions
Raw dataOEAH 181300Z 07004KT CAVOK 47/03 Q1001 NOSIG
An error has occurred. This application may no longer respond until reloaded. Reload 🗙